Latest Coastal Weather Observations for Point Stuart

IDD60701

Issued at 6:11 am CST Saturday 13 February 2016 (issued every 10 minutes, with the page automatically refreshed every 10 minutes)

About coastal observations | Map of coastal stations | Coastal observations for NT | Marine services | Other Formats
Station Details ID: 014254 Name: POINT STUART Lat: -12.24 Lon: 131.88 Height: 1.0 m
Data from the previous 72 hours. | See also: Recent months at Point Stuart
Date/Time
CST
Temp

°C
Wind Pressure Rain
since 9am
mm
Weather Cloud Vis
km
Sea
Height
m
Swell
Dir
 
Speed
knots
Gust
knots
hPa Trend Height
m
Period
s
Dir
13/06:00am 26.8 SSW 5 7 1007.8 - 0.0 - - - - - - -
13/05:30am 26.9 SSW 5 7 1007.1 - 0.0 - - - - - - -
13/05:00am 27.5 SW 9 13 1007.1 - 0.0 - - - - - - -
13/04:30am 27.9 SW 6 9 1006.9 - 0.0 - - - - - - -
13/04:00am 27.9 SSW 4 5 1006.7 - 0.0 - - - - - - -
13/03:30am 28.1 SSW 5 6 1006.5 - 0.0 - - - - - - -
13/03:00am 28.1 SW 5 7 1006.7 - 0.0 - - - - - - -
13/02:30am 28.1 SW 7 8 1006.6 - 0.0 - - - - - - -
13/02:00am 28.2 WSW 7 9 1006.8 - 0.0 - - - - - - -
13/01:30am 28.5 WSW 7 9 1007.2 - 0.0 - - - - - - -
13/01:00am 28.0 SW 4 6 1007.6 - 0.0 - - - - - - -
13/12:30am 27.8 SW 4 4 1007.9 - 0.0 - - - - - - -
13/12:00am 27.5 SSW 4 5 1008.1 - 0.0 - - - - - - -
 
Date/Time
CST
Temp

°C
Wind Pressure Rain
since 9am
mm
Weather Cloud Vis
km
Sea
Height
m
Swell
Dir
 
Speed
knots
Gust
knots
hPa Trend Height
m
Period
s
Dir
12/11:30pm 27.3 SW 4 5 1008.2 - 0.0 - - - - - - -
12/11:00pm 27.3 SW 5 6 1008.2 - 0.0 - - - - - - -
12/10:30pm 27.3 WNW 4 5 1008.1 - 0.0 - - - - - - -
12/10:00pm 27.4 WSW 4 5 1008.0 - 0.0 - - - - - - -
12/09:30pm 27.8 SSW 8 11 1007.8 - 0.0 - - - - - - -
12/09:00pm 28.5 W 6 8 1007.5 - 0.0 - - - - - - -
12/08:30pm 28.5 W 6 8 1007.1 - 0.0 - - - - - - -
12/08:00pm 29.6 W 10 14 1006.8 - 0.0 - - - - - - -
12/07:30pm 30.1 WNW 10 13 1006.7 - 0.0 - - - - - - -
12/07:00pm 30.4 NW 10 12 1006.2 - 0.0 - - - - - - -
12/06:30pm 30.9 WNW 9 11 1005.8 - 0.0 - - - - - - -
12/06:00pm 32.0 NNW 7 10 1005.7 - 0.0 - - - - - - -
12/05:30pm 33.0 NW 8 11 1005.2 - 0.0 - - - - - - -
12/05:00pm 33.6 NNW 6 10 1004.9 - 0.0 - - - - - - -
12/04:30pm 33.7 NW 7 10 1004.7 - 0.0 - - - - - - -
12/04:00pm 33.6 WNW 6 9 1005.0 - 0.0 - - - - - - -
12/03:30pm 33.6 NW 8 12 1005.3 - 0.0 - - - - - - -
12/03:00pm 33.3 NNW 6 11 1005.6 - 0.0 - - - - - - -
12/02:30pm 33.3 NNW 6 10 1005.8 - 0.0 - - - - - - -
12/02:00pm 33.5 NNW 5 9 1006.0 - 0.0 - - - - - - -
12/01:30pm 33.8 NNW 5 9 1006.4 - 0.0 - - - - - - -
12/01:00pm 32.1 WSW 3 8 1006.7 - 0.0 - - - - - - -
12/12:30pm 33.0 W 6 10 1007.2 - 0.0 - - - - - - -
12/12:00pm 32.4 S 4 7 1007.7 - 0.0 - - - - - - -
12/11:30am 32.0 SSW 3 6 1007.9 - 0.0 - - - - - - -
12/11:00am 31.1 WSW 6 9 1008.3 - 0.0 - - - - - - -
12/10:30am 30.1 W 7 9 1008.4 - 0.0 - - - - - - -
12/10:00am 29.9 WSW 3 7 1008.4 - 0.0 - - - - - - -
12/09:30am 29.5 WSW 3 5 1008.6 - 0.0 - - - - - - -
12/09:00am 28.1 S 1 4 1008.8 - 5.8 - - - - - - -
12/08:30am 27.9 SSE 4 7 1009.0 - 5.8 - - - - - - -
12/08:00am 27.1 SSE 4 5 1008.8 - 5.8 - - - - - - -
12/07:30am 26.0 WSW 3 4 1008.3 - 5.8 - - - - - - -
12/07:00am 25.7 ENE 4 5 1008.0 - 5.8 - - - - - - -
12/06:30am 25.5 ENE 5 6 1008.0 - 5.8 - - - - - - -
12/06:00am 25.5 ENE 5 6 1007.8 - 5.8 - - - - - - -
12/05:30am 25.5 ENE 6 8 1007.7 - 5.6 - - - - - - -
12/05:00am 25.8 NE 5 6 1007.5 - 4.8 - - - - - - -
12/04:30am 26.6 ESE 5 6 1007.3 - 3.0 - - - - - - -
12/04:00am 26.7 SE 11 15 1007.5 - 2.8 - - - - - - -
12/03:30am 27.1 SSE 9 12 1006.9 - 2.8 - - - - - - -
12/03:00am 27.0 SSE 6 8 1006.6 - 2.8 - - - - - - -
12/02:30am 26.5 ESE 5 6 1006.5 - 2.8 - - - - - - -
12/02:00am 27.0 CALM 0 0 1006.5 - 2.8 - - - - - - -
12/01:30am 27.3 W 6 7 1006.7 - 2.8 - - - - - - -
12/01:00am 27.3 W 6 7 1007.1 - 2.8 - - - - - - -
12/12:30am 27.2 W 7 9 1007.1 - 2.8 - - - - - - -
12/12:00am 27.4 W 7 9 1007.3 - 2.8 - - - - - - -
 
Date/Time
CST
Temp

°C
Wind Pressure Rain
since 9am
mm
Weather Cloud Vis
km
Sea
Height
m
Swell
Dir
 
Speed
knots
Gust
knots
hPa Trend Height
m
Period
s
Dir
11/11:30pm 27.7 WNW 10 14 1007.5 - 2.8 - - - - - - -
11/11:00pm 27.9 NW 9 13 1007.8 - 2.8 - - - - - - -
11/10:30pm 28.1 WNW 9 13 1007.8 - 2.8 - - - - - - -
11/10:00pm 28.2 WNW 8 11 1007.2 - 2.8 - - - - - - -
11/09:30pm 28.0 WNW 6 9 1006.9 - 2.8 - - - - - - -
11/09:00pm 28.2 WNW 8 11 1006.6 - 2.8 - - - - - - -
11/08:30pm 27.3 NW 6 9 1006.1 - 2.8 - - - - - - -
11/08:00pm 26.4 NW 4 5 1005.6 - 2.8 - - - - - - -
11/07:30pm 26.4 CALM 0 2 1004.8 - 2.8 - - - - - - -
11/07:00pm 25.9 N 6 8 1004.5 - 2.8 - - - - - - -
11/06:30pm 25.1 NW 10 14 1005.0 - 2.6 - - - - - - -
11/06:00pm 24.8 SW 19 24 1004.7 - 0.6 - - - - - - -
11/05:46pm 26.8 S 17 20 1004.5 - 0.0 - - - - - - -
11/05:30pm 28.8 E 8 10 1004.0 - 0.0 - - - - - - -
11/05:00pm 28.9 E 13 24 1004.0 - 0.0 - - - - - - -
11/04:30pm 33.4 NW 12 16 1003.4 - 0.0 - - - - - - -
11/04:00pm 33.1 NW 12 16 1003.3 - 0.0 - - - - - - -
11/03:30pm 32.9 NW 10 14 1003.6 - 0.0 - - - - - - -
11/03:00pm 32.2 NW 10 13 1003.9 - 0.0 - - - - - - -
11/02:30pm 33.5 NW 10 14 1004.2 - 0.0 - - - - - - -
11/02:00pm 33.3 NW 8 11 1004.8 - 0.0 - - - - - - -
11/01:30pm 32.6 NW 7 11 1005.1 - 0.0 - - - - - - -
11/01:00pm 32.2 WNW 8 11 1005.6 - 0.0 - - - - - - -
11/12:30pm 31.8 WNW 8 11 1006.0 - 0.0 - - - - - - -
11/12:00pm 31.4 WNW 7 11 1006.3 - 0.0 - - - - - - -
11/11:30am 31.3 SW 7 10 1006.7 - 0.0 - - - - - - -
11/11:00am 30.7 SW 7 10 1006.9 - 0.0 - - - - - - -
11/10:30am 29.9 WSW 10 13 1007.1 - 0.0 - - - - - - -
11/10:00am 29.5 W 9 12 1007.3 - 0.0 - - - - - - -
11/09:30am 29.3 WSW 6 7 1007.2 - 0.0 - - - - - - -
11/09:00am 28.2 CALM 0 0 1007.3 - 11.2 - - - - - - -
11/08:30am 26.7 N 1 3 1007.2 - 11.2 - - - - - - -
11/08:00am 25.8 N 1 5 1007.1 - 11.2 - - - - - - -
11/07:30am 25.4 NNE 4 6 1006.8 - 11.0 - - - - - - -
11/07:00am 25.3 ENE 6 7 1006.7 - 10.6 - - - - - - -
11/06:30am 25.1 N 1 3 1007.2 - 10.4 - - - - - - -
11/06:00am 25.5 SW 4 7 1007.4 - 9.6 - - - - - - -
11/05:30am 25.6 SE 10 14 1006.5 - 1.2 - - - - - - -
11/05:00am 25.5 N 4 5 1006.5 - 0.4 - - - - - - -
11/04:30am 25.6 N 4 6 1006.4 - 0.4 - - - - - - -
11/04:00am 25.4 N 2 4 1006.2 - 0.4 - - - - - - -
11/03:30am 25.4 N 3 5 1006.3 - 0.4 - - - - - - -
11/03:00am 25.8 N 3 4 1006.5 - 0.4 - - - - - - -
11/02:30am 25.9 N 4 6 1007.0 - 0.4 - - - - - - -
11/02:00am 27.6 ENE 6 7 1006.8 - 0.4 - - - - - - -
11/01:30am 27.4 E 8 11 1007.2 - 0.4 - - - - - - -
11/01:00am 27.6 ENE 9 11 1007.6 - 0.4 - - - - - - -
11/12:30am 27.0 E 5 7 1007.7 - 0.4 - - - - - - -
11/12:00am 26.3 E 5 6 1007.5 - 0.4 - - - - - - -
 
Date/Time
CST
Temp

°C
Wind Pressure Rain
since 9am
mm
Weather Cloud Vis
km
Sea
Height
m
Swell
Dir
 
Speed
knots
Gust
knots
hPa Trend Height
m
Period
s
Dir
10/11:30pm 26.3 E 4 6 1007.6 - 0.4 - - - - - - -
10/11:00pm 26.3 E 6 8 1007.9 - 0.4 - - - - - - -
10/10:30pm 27.4 WSW 4 6 1007.7 - 0.4 - - - - - - -
10/10:00pm 26.7 W 2 6 1007.2 - 0.4 - - - - - - -
10/09:30pm 26.2 W 3 4 1006.7 - 0.4 - - - - - - -
10/09:00pm 26.2 W 5 6 1006.8 - 0.4 - - - - - - -
10/08:30pm 26.2 W 5 6 1006.7 - 0.4 - - - - - - -
10/08:00pm 26.0 SW 3 5 1006.3 - 0.4 - - - - - - -
10/07:30pm 26.2 W 3 4 1005.6 - 0.4 - - - - - - -
10/07:00pm 26.8 WSW 6 8 1005.2 - 0.4 - - - - - - -
10/06:30pm 26.8 WSW 9 13 1004.9 - 0.4 - - - - - - -
10/06:00pm 26.4 W 10 16 1004.9 - 0.4 - - - - - - -
10/05:30pm 27.1 WSW 7 16 1005.0 - 0.4 - - - - - - -
10/05:00pm 27.0 WSW 5 8 1004.6 - 0.2 - - - - - - -
10/04:30pm 26.6 WSW 5 7 1003.8 - 0.0 - - - - - - -
10/04:00pm 26.8 WSW 9 14 1003.9 - 0.0 - - - - - - -
10/03:30pm 27.5 W 12 17 1004.4 - 0.0 - - - - - - -
10/03:00pm 29.6 W 19 23 1004.6 - 0.0 - - - - - - -
10/02:59pm 29.9 W 20 23 1004.6 - 0.0 - - - - - - -
10/02:30pm 29.5 W 8 11 1004.3 - 0.0 - - - - - - -
10/02:00pm 28.2 W 9 12 1004.9 - 0.0 - - - - - - -
10/01:30pm 28.5 WSW 10 20 1006.3 - 0.0 - - - - - - -
10/01:00pm 32.7 W 16 20 1006.1 - 0.0 - - - - - - -
10/12:30pm 34.1 NW 12 17 1006.5 - 0.0 - - - - - - -
10/12:00pm 32.9 NNW 10 15 1006.7 - 0.0 - - - - - - -
10/11:30am 32.8 WNW 10 14 1007.1 - 0.0 - - - - - - -
10/11:00am 31.8 WNW 10 13 1007.2 - 0.0 - - - - - - -
10/10:30am 32.4 W 11 14 1007.6 - 0.0 - - - - - - -
10/10:00am 31.5 W 11 15 1007.8 - 0.0 - - - - - - -
10/09:30am 31.1 W 10 14 1007.9 - 0.0 - - - - - - -
10/09:00am 30.7 WSW 7 9 1007.9 - 0.0 - - - - - - -
10/08:30am 29.9 WSW 7 10 1007.8 - 0.0 - - - - - - -
10/08:00am 28.8 WSW 7 8 1007.5 - 0.0 - - - - - - -
10/07:30am 27.2 WSW 6 7 1007.2 - 0.0 - - - - - - -
10/07:00am 26.6 SW 4 5 1006.7 - 0.0 - - - - - - -
10/06:30am 26.4 WSW 4 6 1006.3 - 0.0 - - - - - - -

Other Formats:

Comma delimited format used in spreadsheet applications
http://www.bom.gov.au/fwo/IDD60701/IDD60701.94127.axf

JavaScript Object Notation format (JSON) in row-major order
http://www.bom.gov.au/fwo/IDD60701/IDD60701.94127.json